createdAt,value
2024-04-16T00:01:23.835Z,3.30
2024-04-16T00:03:52.275Z,4.23
2024-04-16T00:06:20.651Z,4.03
2024-04-16T00:08:51.750Z,4.07
2024-04-16T00:11:20.259Z,4.67
2024-04-16T00:13:48.770Z,4.37
2024-04-16T00:16:27.016Z,4.60
2024-04-16T00:18:55.497Z,4.60
2024-04-16T00:21:23.930Z,4.27
2024-04-16T00:23:52.883Z,4.37
2024-04-16T00:26:21.496Z,5.00
2024-04-16T00:28:49.774Z,4.80
2024-04-16T00:31:18.524Z,4.80
2024-04-16T00:33:47.315Z,4.30
2024-04-16T00:36:15.694Z,4.23
2024-04-16T00:38:44.318Z,4.93
2024-04-16T00:41:12.770Z,4.23
2024-04-16T00:43:41.367Z,5.33
2024-04-16T00:46:09.854Z,5.07
2024-04-16T00:48:38.347Z,5.30
2024-04-16T00:51:06.694Z,5.10
2024-04-16T00:53:35.071Z,4.93
2024-04-16T00:56:03.720Z,5.87
2024-04-16T00:58:34.395Z,5.33
2024-04-16T01:01:03.014Z,4.83
2024-04-16T01:03:31.458Z,4.93
2024-04-16T01:06:00.657Z,4.53
2024-04-16T01:08:29.043Z,4.83
2024-04-16T01:10:57.532Z,5.20
2024-04-16T01:13:25.995Z,3.90
2024-04-16T01:15:54.380Z,4.00
2024-04-16T01:18:22.811Z,4.50
2024-04-16T01:20:52.446Z,4.70
2024-04-16T01:23:21.145Z,4.90
2024-04-16T01:25:49.672Z,3.80
2024-04-16T01:28:19.365Z,3.70
2024-04-16T01:30:47.776Z,3.77
2024-04-16T01:33:16.975Z,3.50
2024-04-16T01:35:45.500Z,4.07
2024-04-16T01:38:14.116Z,3.87
2024-04-16T01:40:42.471Z,3.77
2024-04-16T01:43:10.886Z,3.87
2024-04-16T01:45:40.774Z,3.67
2024-04-16T01:48:12.335Z,3.90
2024-04-16T01:50:40.841Z,3.83
2024-04-16T01:53:09.401Z,4.20
2024-04-16T01:55:39.780Z,4.00
2024-04-16T01:58:08.285Z,4.17
2024-04-16T02:00:36.873Z,4.30
2024-04-16T02:03:05.712Z,4.10
2024-04-16T02:05:34.099Z,3.97
2024-04-16T02:08:02.521Z,4.63
2024-04-16T02:10:30.867Z,4.03
2024-04-16T02:12:59.302Z,4.13
2024-04-16T02:15:29.040Z,4.00
2024-04-16T02:17:57.891Z,3.50
2024-04-16T02:20:26.772Z,3.40
2024-04-16T02:22:55.146Z,4.20
2024-04-16T02:25:23.595Z,4.00
2024-04-16T02:27:52.422Z,4.10
2024-04-16T02:30:21.302Z,3.50
2024-04-16T02:32:49.736Z,3.43
2024-04-16T02:35:18.123Z,3.70
2024-04-16T02:37:50.039Z,3.33
2024-04-16T02:40:18.512Z,4.80
2024-04-16T02:42:47.041Z,3.77
2024-04-16T02:45:15.571Z,3.50
2024-04-16T02:47:44.186Z,3.70
2024-04-16T02:50:12.664Z,4.00
2024-04-16T02:52:41.002Z,3.10
2024-04-16T02:55:09.428Z,3.13
2024-04-16T02:57:39.861Z,3.00
2024-04-16T03:00:08.924Z,2.97
2024-04-16T03:02:40.019Z,3.03
2024-04-16T03:05:08.476Z,2.80
2024-04-16T03:07:37.644Z,3.40
2024-04-16T03:10:07.114Z,3.33
2024-04-16T03:12:36.127Z,2.40
2024-04-16T03:15:05.035Z,3.10
2024-04-16T03:17:33.475Z,3.20
2024-04-16T03:20:01.965Z,2.80
2024-04-16T03:22:30.777Z,2.77
2024-04-16T03:25:00.254Z,2.60
2024-04-16T03:27:28.607Z,3.37
2024-04-16T03:29:56.984Z,2.43
2024-04-16T03:32:25.503Z,2.37
2024-04-16T03:34:53.905Z,2.53
2024-04-16T03:37:22.350Z,2.93
2024-04-16T03:39:51.792Z,2.20
2024-04-16T03:42:20.134Z,2.70
2024-04-16T03:44:53.040Z,3.03
2024-04-16T03:47:22.308Z,2.23
2024-04-16T03:49:50.709Z,2.23
2024-04-16T03:52:19.138Z,2.37
2024-04-16T03:54:47.630Z,2.10
2024-04-16T03:57:16.093Z,2.47
2024-04-16T04:00:03.569Z,2.43
2024-04-16T04:02:38.195Z,2.67
2024-04-16T04:05:07.597Z,2.40
2024-04-16T04:07:36.038Z,2.43
2024-04-16T04:10:05.582Z,2.70
2024-04-16T04:12:35.952Z,2.90
2024-04-16T04:15:07.957Z,2.63
2024-04-16T04:17:36.370Z,2.43
2024-04-16T04:20:05.367Z,2.30
2024-04-16T04:22:34.162Z,2.30
2024-04-16T04:25:02.527Z,2.50
2024-04-16T04:27:31.003Z,2.50
2024-04-16T04:29:59.313Z,2.63
2024-04-16T04:32:27.912Z,2.60
2024-04-16T04:34:57.137Z,2.40
2024-04-16T04:37:25.573Z,2.77
2024-04-16T04:39:53.962Z,2.17
2024-04-16T04:42:23.262Z,2.57
2024-04-16T04:44:51.822Z,2.93
2024-04-16T04:47:22.980Z,2.67
2024-04-16T04:49:52.548Z,3.47
2024-04-16T04:52:20.975Z,3.17
2024-04-16T04:54:49.370Z,2.67
2024-04-16T04:57:17.932Z,2.67
2024-04-16T04:59:46.113Z,3.30
2024-04-16T05:02:14.447Z,3.67
2024-04-16T05:04:42.764Z,3.33
2024-04-16T05:07:11.171Z,3.83
2024-04-16T05:09:39.716Z,3.33
2024-04-16T05:12:08.192Z,4.40
2024-04-16T05:14:36.634Z,4.30
2024-04-16T05:17:05.075Z,4.10
2024-04-16T05:19:33.456Z,3.60
2024-04-16T05:22:01.855Z,4.47
2024-04-16T05:24:30.116Z,3.97
2024-04-16T05:26:58.289Z,4.27
2024-04-16T05:29:26.896Z,3.63
2024-04-16T05:31:55.250Z,4.00
2024-04-16T05:34:23.527Z,4.40
2024-04-16T05:36:51.823Z,4.90
2024-04-16T05:39:20.093Z,4.57
2024-04-16T05:41:48.288Z,3.70
2024-04-16T05:44:17.292Z,3.40
2024-04-16T05:46:45.508Z,3.07
2024-04-16T05:49:13.696Z,3.37
2024-04-16T05:51:42.067Z,3.60
2024-04-16T05:54:10.256Z,3.40
2024-04-16T05:56:38.507Z,3.83
2024-04-16T05:59:06.926Z,3.57
2024-04-16T06:01:35.587Z,3.73
2024-04-16T06:04:04.019Z,3.97
2024-04-16T06:06:32.465Z,3.87
2024-04-16T06:09:00.946Z,4.60
2024-04-16T06:11:31.183Z,5.03
2024-04-16T06:14:00.194Z,5.23
2024-04-16T06:16:28.688Z,4.80
2024-04-16T06:18:57.114Z,5.27
2024-04-16T06:21:25.545Z,5.33
2024-04-16T06:23:53.940Z,5.13
2024-04-16T06:26:22.217Z,4.70
2024-04-16T06:28:50.627Z,4.47
2024-04-16T06:31:18.964Z,4.03
2024-04-16T06:33:47.322Z,5.17
2024-04-16T06:36:15.970Z,5.20
2024-04-16T06:38:44.277Z,5.27
2024-04-16T06:41:12.641Z,4.87
2024-04-16T06:43:41.033Z,5.50
2024-04-16T06:46:10.178Z,4.97
2024-04-16T06:48:41.277Z,4.73
2024-04-16T06:51:09.763Z,5.10
2024-04-16T06:53:38.103Z,4.73
2024-04-16T06:56:07.943Z,3.87
2024-04-16T06:58:36.773Z,4.80
2024-04-16T07:01:05.292Z,4.57
2024-04-16T07:03:35.159Z,4.90
2024-04-16T07:06:04.107Z,4.07
2024-04-16T07:08:33.223Z,3.40
2024-04-16T07:11:01.602Z,3.87
2024-04-16T07:13:29.996Z,4.10
2024-04-16T07:15:58.581Z,3.50
2024-04-16T07:18:27.295Z,3.80
2024-04-16T07:20:55.731Z,3.57
2024-04-16T07:23:24.366Z,3.87
2024-04-16T07:25:52.816Z,3.40
2024-04-16T07:28:21.138Z,3.43
2024-04-16T07:30:57.648Z,3.30
2024-04-16T07:33:34.150Z,3.00
2024-04-16T07:36:09.849Z,3.87
2024-04-16T07:38:38.970Z,3.33
2024-04-16T07:41:07.386Z,3.50
2024-04-16T07:43:36.197Z,3.43
2024-04-16T07:46:05.003Z,2.97
2024-04-16T07:48:33.449Z,3.50
2024-04-16T07:51:01.790Z,3.40
2024-04-16T07:53:30.227Z,2.97
2024-04-16T07:55:58.508Z,3.40
2024-04-16T07:58:26.868Z,3.70
2024-04-16T08:00:56.148Z,4.00
2024-04-16T08:03:24.589Z,3.60
2024-04-16T08:05:52.942Z,3.07
2024-04-16T08:08:26.524Z,3.43
2024-04-16T08:11:14.793Z,3.17
2024-04-16T08:13:43.516Z,3.60
2024-04-16T08:16:12.972Z,3.00
2024-04-16T08:18:41.573Z,2.77
2024-04-16T08:21:10.246Z,3.73
2024-04-16T08:23:40.143Z,2.90
2024-04-16T08:26:10.400Z,3.33
2024-04-16T08:28:40.311Z,2.77
2024-04-16T08:31:09.474Z,3.07
2024-04-16T08:33:38.009Z,3.70
2024-04-16T08:36:07.005Z,3.13
2024-04-16T08:38:35.528Z,3.20
2024-04-16T08:41:04.787Z,3.47
2024-04-16T08:43:36.360Z,3.53
2024-04-16T08:46:05.483Z,2.80
2024-04-16T08:48:38.158Z,2.80
2024-04-16T08:51:07.906Z,3.47
2024-04-16T08:53:37.052Z,3.03
2024-04-16T08:56:05.755Z,3.10
2024-04-16T08:58:34.126Z,2.90
2024-04-16T09:01:05.342Z,2.60
2024-04-16T09:03:34.410Z,3.00
2024-04-16T09:06:05.310Z,2.60
2024-04-16T09:08:34.691Z,2.90
2024-04-16T09:11:03.128Z,2.63
2024-04-16T09:13:31.622Z,3.37
2024-04-16T09:16:00.649Z,2.63
2024-04-16T09:18:29.142Z,2.30
2024-04-16T09:20:57.454Z,2.50
2024-04-16T09:23:25.784Z,3.70
2024-04-16T09:25:54.242Z,2.40
2024-04-16T09:28:22.607Z,2.30
2024-04-16T09:30:57.910Z,2.60
2024-04-16T09:33:37.161Z,2.40
2024-04-16T09:36:17.492Z,2.47
2024-04-16T09:38:47.080Z,2.70
2024-04-16T09:41:15.687Z,2.70
2024-04-16T09:43:44.304Z,2.87
2024-04-16T09:46:13.525Z,2.87
2024-04-16T09:48:44.972Z,2.53
2024-04-16T09:51:14.488Z,2.93
2024-04-16T09:53:45.379Z,2.67
2024-04-16T09:56:14.478Z,2.67
2024-04-16T09:58:51.224Z,2.33
2024-04-16T10:01:20.583Z,2.20
2024-04-16T10:03:49.789Z,2.70
2024-04-16T10:06:18.163Z,3.00
2024-04-16T10:08:46.629Z,2.40
2024-04-16T10:11:17.946Z,2.13
2024-04-16T10:13:53.758Z,2.13
2024-04-16T10:16:22.285Z,1.83
2024-04-16T10:18:57.592Z,2.10
2024-04-16T10:21:27.147Z,2.00
2024-04-16T10:24:01.775Z,2.33
2024-04-16T10:26:31.468Z,1.90
2024-04-16T10:29:00.637Z,1.73
2024-04-16T10:31:39.594Z,1.93
2024-04-16T10:34:08.534Z,1.50
2024-04-16T10:36:37.127Z,1.83
2024-04-16T10:39:15.223Z,1.80
2024-04-16T10:41:53.995Z,1.70
2024-04-16T10:44:23.212Z,1.53
2024-04-16T10:46:53.132Z,1.40
2024-04-16T10:49:24.189Z,2.00
2024-04-16T10:51:53.615Z,1.80
2024-04-16T10:54:22.325Z,1.83
2024-04-16T10:56:51.690Z,1.80
2024-04-16T10:59:20.515Z,1.60
2024-04-16T11:01:49.143Z,2.10
2024-04-16T11:04:18.884Z,1.60
2024-04-16T11:06:47.873Z,1.20
2024-04-16T11:09:17.135Z,1.73
2024-04-16T11:11:46.124Z,1.73
2024-04-16T11:14:14.528Z,1.30
2024-04-16T11:16:43.301Z,1.67
2024-04-16T11:19:11.888Z,1.37
2024-04-16T11:21:40.774Z,2.13
2024-04-16T11:24:09.354Z,1.57
2024-04-16T11:26:41.369Z,1.63
2024-04-16T11:29:09.774Z,1.63
2024-04-16T11:31:38.173Z,1.60
2024-04-16T11:34:07.310Z,1.80
2024-04-16T11:36:35.782Z,1.57
2024-04-16T11:39:06.723Z,1.60
2024-04-16T11:41:35.119Z,1.57
2024-04-16T11:44:04.102Z,1.30
2024-04-16T11:46:32.547Z,1.60
2024-04-16T11:49:00.903Z,1.70
2024-04-16T11:51:29.412Z,1.77
2024-04-16T11:53:57.719Z,1.70
2024-04-16T11:56:26.063Z,1.67
2024-04-16T11:58:54.409Z,1.70
2024-04-16T12:01:22.950Z,1.80
2024-04-16T12:03:51.431Z,1.17
2024-04-16T12:06:19.867Z,1.50
2024-04-16T12:08:48.227Z,1.37
2024-04-16T12:11:17.190Z,1.30
2024-04-16T12:13:46.202Z,1.07
2024-04-16T12:16:14.708Z,2.00
2024-04-16T12:18:43.348Z,1.90
2024-04-16T12:21:11.675Z,1.23
2024-04-16T12:23:39.980Z,1.20
2024-04-16T12:26:08.354Z,1.43
2024-04-16T12:28:37.175Z,1.50
2024-04-16T12:31:06.397Z,1.50
2024-04-16T12:33:34.904Z,1.23
2024-04-16T12:36:03.642Z,1.37
2024-04-16T12:38:32.886Z,1.30
2024-04-16T12:41:01.353Z,1.33
2024-04-16T12:43:29.837Z,1.40
2024-04-16T12:46:01.974Z,1.57
2024-04-16T12:48:33.411Z,1.60
2024-04-16T12:51:02.082Z,1.77
2024-04-16T12:53:30.831Z,1.40
2024-04-16T12:56:00.791Z,1.50
2024-04-16T12:58:29.189Z,1.63
2024-04-16T13:00:57.619Z,1.50
2024-04-16T13:03:27.019Z,1.37
2024-04-16T13:05:55.376Z,1.63
2024-04-16T13:08:23.736Z,1.20
2024-04-16T13:10:52.474Z,1.40
2024-04-16T13:13:22.541Z,1.30
2024-04-16T13:15:50.954Z,1.70
2024-04-16T13:18:19.425Z,1.37
2024-04-16T13:20:57.137Z,1.30
2024-04-16T13:23:26.339Z,1.27
2024-04-16T13:25:57.711Z,1.20
2024-04-16T13:28:29.155Z,1.20
2024-04-16T13:30:58.123Z,1.40
2024-04-16T13:33:27.914Z,1.40
2024-04-16T13:35:56.737Z,1.57
2024-04-16T13:38:25.459Z,2.00
2024-04-16T13:40:56.056Z,1.93
2024-04-16T13:43:24.423Z,1.50
2024-04-16T13:45:52.887Z,1.40
2024-04-16T13:48:21.653Z,1.40
2024-04-16T13:50:54.571Z,1.30
2024-04-16T13:53:26.339Z,1.33
2024-04-16T13:55:54.660Z,1.57
2024-04-16T13:58:23.066Z,1.43
2024-04-16T14:00:51.978Z,1.43
2024-04-16T14:03:20.670Z,1.40
2024-04-16T14:05:50.276Z,1.53
2024-04-16T14:08:18.644Z,1.20
2024-04-16T14:10:47.364Z,1.50
2024-04-16T14:13:15.865Z,1.50
2024-04-16T14:15:45.647Z,1.33
2024-04-16T14:18:15.970Z,1.60
2024-04-16T14:20:44.323Z,1.50
2024-04-16T14:23:13.062Z,1.63
2024-04-16T14:25:41.579Z,1.27
2024-04-16T14:28:09.941Z,1.30
2024-04-16T14:30:38.266Z,1.53
2024-04-16T14:33:09.713Z,1.33
2024-04-16T14:35:38.266Z,1.43
2024-04-16T14:38:09.526Z,1.67
2024-04-16T14:40:42.807Z,1.47
2024-04-16T14:43:15.867Z,1.60
2024-04-16T14:45:51.386Z,1.40
2024-04-16T14:48:23.661Z,1.37
2024-04-16T14:51:04.080Z,1.80
2024-04-16T14:53:36.859Z,1.57
2024-04-16T14:56:09.744Z,1.50
2024-04-16T14:58:45.288Z,1.57
2024-04-16T15:01:18.970Z,1.70
2024-04-16T15:03:54.568Z,1.50
2024-04-16T15:06:25.058Z,1.50
2024-04-16T15:08:56.376Z,1.20
2024-04-16T15:11:24.785Z,1.63
2024-04-16T15:13:54.883Z,1.90
2024-04-16T15:16:26.568Z,1.43
2024-04-16T15:18:59.389Z,1.40
2024-04-16T15:21:30.663Z,1.63
2024-04-16T15:24:02.338Z,1.40
2024-04-16T15:26:33.172Z,1.67
2024-04-16T15:29:04.347Z,1.70
2024-04-16T15:31:35.492Z,1.60
2024-04-16T15:34:05.714Z,1.70
2024-04-16T15:36:34.211Z,1.47
2024-04-16T15:39:02.670Z,1.50
2024-04-16T15:41:33.761Z,1.47
2024-04-16T15:44:02.818Z,1.63
2024-04-16T15:46:31.217Z,1.67
2024-04-16T15:49:00.642Z,1.57
2024-04-16T15:51:29.074Z,1.50
2024-04-16T15:53:57.515Z,1.70
2024-04-16T15:56:25.926Z,1.73
2024-04-16T15:58:54.275Z,1.60
2024-04-16T16:01:22.749Z,1.83
2024-04-16T16:03:51.259Z,2.17
2024-04-16T16:06:19.964Z,2.10
2024-04-16T16:08:48.557Z,2.57
2024-04-16T16:11:17.371Z,2.70
2024-04-16T16:13:45.834Z,2.20
2024-04-16T16:16:15.111Z,2.40
2024-04-16T16:18:43.515Z,2.27
2024-04-16T16:21:11.868Z,2.20
2024-04-16T16:23:40.051Z,2.80
2024-04-16T16:26:09.416Z,2.20
2024-04-16T16:28:38.079Z,1.87
2024-04-16T16:31:06.364Z,1.93
2024-04-16T16:33:34.686Z,1.70
2024-04-16T16:36:03.110Z,1.73
2024-04-16T16:38:32.394Z,2.13
2024-04-16T16:41:00.855Z,2.17
2024-04-16T16:43:29.246Z,2.30
2024-04-16T16:45:57.543Z,1.80
2024-04-16T16:48:25.939Z,1.70
2024-04-16T16:50:54.194Z,2.13
2024-04-16T16:53:22.607Z,2.10
2024-04-16T16:55:52.031Z,2.40
2024-04-16T16:58:21.485Z,2.00
2024-04-16T17:00:50.442Z,2.30
2024-04-16T17:03:20.095Z,1.67
2024-04-16T17:05:48.351Z,1.53
2024-04-16T17:08:16.827Z,1.30
2024-04-16T17:10:45.064Z,1.30
2024-04-16T17:13:14.176Z,1.40
2024-04-16T17:15:45.396Z,1.63
2024-04-16T17:18:13.791Z,1.37
2024-04-16T17:20:42.123Z,1.23
2024-04-16T17:23:10.391Z,1.37
2024-04-16T17:25:38.762Z,1.57
2024-04-16T17:28:07.868Z,1.33
2024-04-16T17:30:36.334Z,2.23
2024-04-16T17:33:04.875Z,1.90
2024-04-16T17:35:33.097Z,1.70
2024-04-16T17:38:01.358Z,1.73
2024-04-16T17:40:29.616Z,1.70
2024-04-16T17:42:57.876Z,1.30
2024-04-16T17:45:26.205Z,2.00
2024-04-16T17:47:54.469Z,2.10
2024-04-16T17:50:22.762Z,2.67
2024-04-16T17:52:53.565Z,2.40
2024-04-16T17:55:22.032Z,2.43
2024-04-16T17:57:51.206Z,2.33
2024-04-16T18:00:21.033Z,2.37
2024-04-16T18:02:50.385Z,2.70
2024-04-16T18:05:19.112Z,2.37
2024-04-16T18:07:47.735Z,3.10
2024-04-16T18:10:16.262Z,2.80
2024-04-16T18:12:44.517Z,2.17
2024-04-16T18:15:12.811Z,3.03
2024-04-16T18:17:41.171Z,2.43
2024-04-16T18:20:09.480Z,2.30
2024-04-16T18:22:37.772Z,2.30
2024-04-16T18:25:05.981Z,2.57
2024-04-16T18:27:37.383Z,1.70
2024-04-16T18:30:06.328Z,1.20
2024-04-16T18:32:35.062Z,0.90
2024-04-16T18:35:03.595Z,0.80
2024-04-16T18:37:32.007Z,1.10
2024-04-16T18:40:00.366Z,1.00
2024-04-16T18:42:28.779Z,1.10
2024-04-16T18:44:57.274Z,1.00
2024-04-16T18:47:25.609Z,1.07
2024-04-16T18:49:56.296Z,1.10
2024-04-16T18:52:26.046Z,1.13
2024-04-16T18:54:54.638Z,1.17
2024-04-16T18:57:25.017Z,1.80
2024-04-16T18:59:55.829Z,1.60
2024-04-16T19:02:24.842Z,1.40
2024-04-16T19:04:53.542Z,1.13
2024-04-16T19:07:22.316Z,1.20
2024-04-16T19:09:51.003Z,1.57
2024-04-16T19:12:19.734Z,1.30
2024-04-16T19:14:48.285Z,1.50
2024-04-16T19:17:17.100Z,1.33
2024-04-16T19:19:46.024Z,1.47
2024-04-16T19:22:16.134Z,1.50
2024-04-16T19:24:45.123Z,1.60
2024-04-16T19:27:13.529Z,1.37
2024-04-16T19:29:42.072Z,1.67
2024-04-16T19:32:10.670Z,1.43
2024-04-16T19:34:39.366Z,1.70
2024-04-16T19:37:08.196Z,2.00
2024-04-16T19:39:36.590Z,2.20
2024-04-16T19:42:07.680Z,1.37
2024-04-16T19:44:36.751Z,1.73
2024-04-16T19:47:05.426Z,1.47
2024-04-16T19:49:34.051Z,1.67
2024-04-16T19:52:03.356Z,1.93
2024-04-16T19:54:33.864Z,1.93
2024-04-16T19:57:06.778Z,1.80
2024-04-16T19:59:44.503Z,1.60
2024-04-16T20:02:14.057Z,1.80
2024-04-16T20:04:43.745Z,1.93
2024-04-16T20:07:12.826Z,1.80
2024-04-16T20:09:41.684Z,2.00
2024-04-16T20:12:10.053Z,1.93
2024-04-16T20:14:41.125Z,1.67
2024-04-16T20:17:11.020Z,2.53
2024-04-16T20:19:40.664Z,1.87
2024-04-16T20:22:09.207Z,2.20
2024-04-16T20:24:39.080Z,2.20
2024-04-16T20:27:08.586Z,2.20
2024-04-16T20:29:37.135Z,2.20
2024-04-16T20:32:05.861Z,1.90
2024-04-16T20:34:44.533Z,2.30
2024-04-16T20:37:18.914Z,2.23
2024-04-16T20:39:49.226Z,2.20
2024-04-16T20:42:20.321Z,1.63
2024-04-16T20:44:49.091Z,2.20
2024-04-16T20:47:17.405Z,2.70
2024-04-16T20:49:46.136Z,2.30
2024-04-16T20:52:14.794Z,2.20
2024-04-16T20:54:43.272Z,2.50
2024-04-16T20:57:11.829Z,2.50
2024-04-16T20:59:42.553Z,2.53
2024-04-16T21:02:11.636Z,2.27
2024-04-16T21:04:40.110Z,2.20
2024-04-16T21:07:09.149Z,2.30
2024-04-16T21:09:37.603Z,2.33
2024-04-16T21:12:06.334Z,2.00
2024-04-16T21:14:34.742Z,2.30
2024-04-16T21:17:03.122Z,2.70
2024-04-16T21:19:32.842Z,2.37
2024-04-16T21:22:01.276Z,2.33
2024-04-16T21:24:30.134Z,2.70
2024-04-16T21:26:58.768Z,2.60
2024-04-16T21:29:27.239Z,2.73
2024-04-16T21:31:55.973Z,2.20
2024-04-16T21:34:24.583Z,2.10
2024-04-16T21:36:53.181Z,2.40
2024-04-16T21:39:24.744Z,2.33
2024-04-16T21:41:53.539Z,2.73
2024-04-16T21:44:22.182Z,2.50
2024-04-16T21:46:50.736Z,2.63
2024-04-16T21:49:19.489Z,2.23
2024-04-16T21:51:49.326Z,2.23
2024-04-16T21:54:18.082Z,2.00
2024-04-16T21:56:46.788Z,1.83
2024-04-16T21:59:15.513Z,2.00
2024-04-16T22:01:44.499Z,2.20
2024-04-16T22:04:13.750Z,2.10
2024-04-16T22:06:42.363Z,2.00
2024-04-16T22:09:11.485Z,2.10
2024-04-16T22:11:39.902Z,2.40
2024-04-16T22:14:08.361Z,2.30
2024-04-16T22:16:36.905Z,2.30
2024-04-16T22:19:05.307Z,2.03
2024-04-16T22:21:34.240Z,2.00
2024-04-16T22:24:02.879Z,2.13
2024-04-16T22:26:32.640Z,2.60
2024-04-16T22:29:01.250Z,2.60
2024-04-16T22:31:29.942Z,2.17
2024-04-16T22:33:58.276Z,2.00
2024-04-16T22:36:27.045Z,2.50
2024-04-16T22:38:55.613Z,2.60
2024-04-16T22:41:24.279Z,2.63
2024-04-16T22:43:52.912Z,2.90
2024-04-16T22:46:23.071Z,2.70
2024-04-16T22:48:51.548Z,2.47
2024-04-16T22:51:20.018Z,2.40
2024-04-16T22:53:48.474Z,2.33
2024-04-16T22:56:17.100Z,2.80
2024-04-16T22:58:45.505Z,2.80
2024-04-16T23:01:14.119Z,3.23
2024-04-16T23:03:43.050Z,2.43
2024-04-16T23:06:09.592Z,2.40
2024-04-16T23:08:36.231Z,2.73
2024-04-16T23:11:05.002Z,2.40
2024-04-16T23:13:33.658Z,2.27
2024-04-16T23:16:04.559Z,2.30
2024-04-16T23:18:33.338Z,2.40
2024-04-16T23:21:01.824Z,3.00
2024-04-16T23:23:31.611Z,2.40
2024-04-16T23:26:00.278Z,2.20
2024-04-16T23:28:28.712Z,2.17
2024-04-16T23:30:57.144Z,2.37
2024-04-16T23:33:25.486Z,2.70
2024-04-16T23:35:54.012Z,2.60
2024-04-16T23:38:22.789Z,2.60
2024-04-16T23:40:51.413Z,2.40
2024-04-16T23:43:19.965Z,2.43
2024-04-16T23:45:48.591Z,2.43
2024-04-16T23:48:16.948Z,2.57
2024-04-16T23:50:45.512Z,2.80
2024-04-16T23:53:13.909Z,2.77
2024-04-16T23:55:42.454Z,2.20
2024-04-16T23:58:11.142Z,2.20
